createdAt,value
2022-10-11T00:00:12.561Z,11.30
2022-10-11T00:02:40.115Z,11.97
2022-10-11T00:05:07.680Z,15.87
2022-10-11T00:07:35.226Z,13.60
2022-10-11T00:10:02.832Z,11.87
2022-10-11T00:12:30.363Z,10.70
2022-10-11T00:14:57.907Z,14.73
2022-10-11T00:17:25.472Z,15.20
2022-10-11T00:19:53.027Z,16.17
2022-10-11T00:22:20.572Z,14.70
2022-10-11T00:24:48.146Z,15.27
2022-10-11T00:27:15.699Z,10.07
2022-10-11T00:29:43.236Z,13.40
2022-10-11T00:32:10.887Z,13.43
2022-10-11T00:34:38.424Z,14.33
2022-10-11T00:37:05.968Z,10.27
2022-10-11T00:39:34.367Z,13.83
2022-10-11T00:42:01.924Z,17.70
2022-10-11T00:44:30.226Z,11.23
2022-10-11T00:47:00.449Z,11.83
2022-10-11T00:49:33.900Z,11.77
2022-10-11T00:52:05.294Z,14.53
2022-10-11T00:54:32.887Z,14.40
2022-10-11T00:57:00.414Z,13.03
2022-10-11T00:59:27.950Z,16.03
2022-10-11T01:01:55.525Z,11.73
2022-10-11T01:04:23.057Z,11.03
2022-10-11T01:06:51.389Z,12.83
2022-10-11T01:09:18.944Z,11.90
2022-10-11T01:11:46.497Z,11.30
2022-10-11T01:14:35.242Z,13.90
2022-10-11T01:17:11.431Z,12.63
2022-10-11T01:19:56.797Z,7.83
2022-10-11T01:22:29.679Z,13.15
2022-10-11T01:25:21.365Z,14.23
2022-10-11T01:28:16.465Z,8.83
2022-10-11T01:30:44.023Z,8.27
2022-10-11T01:33:18.371Z,11.17
2022-10-11T01:36:04.602Z,8.37
2022-10-11T01:38:53.132Z,6.73
2022-10-11T01:41:26.406Z,15.47
2022-10-11T01:43:53.942Z,8.87
2022-10-11T01:46:21.480Z,10.43
2022-10-11T01:48:49.848Z,9.77
2022-10-11T01:51:17.382Z,7.97
2022-10-11T01:53:59.913Z,10.25
2022-10-11T01:56:55.165Z,9.48
2022-10-11T01:59:28.576Z,9.13
2022-10-11T02:02:04.760Z,10.60
2022-10-11T02:04:56.466Z,10.40
2022-10-11T02:07:41.869Z,8.47
2022-10-11T02:10:15.194Z,8.00
2022-10-11T02:12:42.700Z,9.70
2022-10-11T02:15:10.243Z,8.67
2022-10-11T02:17:37.788Z,9.00
2022-10-11T02:20:05.345Z,7.83
2022-10-11T02:22:32.890Z,10.53
2022-10-11T02:25:01.229Z,8.40
2022-10-11T02:27:28.764Z,11.73
2022-10-11T02:29:56.299Z,11.45
2022-10-11T02:32:23.864Z,13.27
2022-10-11T02:34:51.417Z,12.53
2022-10-11T02:37:30.942Z,9.23
2022-10-11T02:40:16.759Z,13.87
2022-10-11T02:43:05.705Z,8.67
2022-10-11T02:45:42.249Z,11.93
2022-10-11T02:48:10.590Z,13.03
2022-10-11T02:50:38.157Z,18.13
2022-10-11T02:53:05.689Z,13.53
2022-10-11T02:55:33.292Z,11.47
2022-10-11T02:58:00.820Z,10.53
2022-10-11T03:00:28.354Z,10.00
2022-10-11T03:02:55.966Z,15.70
2022-10-11T03:05:23.506Z,6.97
2022-10-11T03:07:51.045Z,11.50
2022-10-11T03:10:18.610Z,12.50
2022-10-11T03:12:46.144Z,9.17
2022-10-11T03:15:13.689Z,12.43
2022-10-11T03:17:42.059Z,13.00
2022-10-11T03:20:09.580Z,10.30
2022-10-11T03:22:37.110Z,13.90
2022-10-11T03:25:05.061Z,12.93
2022-10-11T03:27:32.229Z,13.87
2022-10-11T03:29:59.784Z,10.83
2022-10-11T03:32:27.338Z,14.27
2022-10-11T03:34:54.892Z,14.37
2022-10-11T03:37:22.447Z,12.03
2022-10-11T03:39:50.004Z,13.57
2022-10-11T03:42:18.304Z,9.67
2022-10-11T03:44:45.839Z,15.37
2022-10-11T03:47:13.443Z,11.00
2022-10-11T03:49:43.649Z,12.50
2022-10-11T03:52:08.533Z,13.10
2022-10-11T03:54:36.076Z,10.40
2022-10-11T03:57:03.634Z,13.67
2022-10-11T03:59:31.175Z,7.43
2022-10-11T04:01:59.690Z,7.90
2022-10-11T04:04:27.072Z,12.10
2022-10-11T04:06:54.607Z,8.90
2022-10-11T04:09:22.199Z,14.33
2022-10-11T04:11:49.716Z,10.63
2022-10-11T04:14:17.251Z,10.60
2022-10-11T04:16:45.564Z,13.87
2022-10-11T04:19:13.108Z,13.83
2022-10-11T04:21:40.642Z,10.50
2022-10-11T04:24:08.970Z,7.07
2022-10-11T04:26:36.500Z,9.80
2022-10-11T04:29:04.035Z,9.00
2022-10-11T04:31:32.386Z,7.77
2022-10-11T04:33:59.921Z,14.87
2022-10-11T04:36:27.457Z,14.15
2022-10-11T04:38:56.265Z,9.30
2022-10-11T04:41:23.802Z,7.60
2022-10-11T04:43:51.321Z,8.80
2022-10-11T04:46:19.032Z,14.85
2022-10-11T04:48:46.567Z,13.87
2022-10-11T04:51:14.850Z,15.00
2022-10-11T04:53:43.214Z,17.80
2022-10-11T04:56:11.527Z,7.57
2022-10-11T04:58:39.062Z,9.10
2022-10-11T05:01:07.402Z,11.83
2022-10-11T05:03:34.948Z,8.20
2022-10-11T05:06:05.665Z,14.03
2022-10-11T05:08:30.085Z,19.97
2022-10-11T05:11:00.544Z,9.63
2022-10-11T05:13:28.851Z,11.50
2022-10-11T05:15:56.423Z,12.77
2022-10-11T05:18:23.955Z,8.57
2022-10-11T05:21:00.334Z,15.43
2022-10-11T05:23:27.966Z,17.87
2022-10-11T05:25:55.474Z,7.87
2022-10-11T05:28:23.081Z,14.63
2022-10-11T05:30:50.579Z,10.10
2022-10-11T05:33:18.124Z,10.07
2022-10-11T05:35:45.651Z,20.42
2022-10-11T05:38:14.011Z,14.60
2022-10-11T05:40:41.545Z,12.27
2022-10-11T05:43:09.061Z,17.85
2022-10-11T05:45:36.646Z,17.93
2022-10-11T05:48:04.180Z,15.00
2022-10-11T05:50:31.705Z,12.10
2022-10-11T05:52:59.278Z,13.87
2022-10-11T05:55:27.591Z,12.10
2022-10-11T05:57:55.126Z,10.90
2022-10-11T06:00:23.467Z,11.80
2022-10-11T06:02:51.013Z,12.37
2022-10-11T06:05:18.552Z,14.17
2022-10-11T06:07:46.121Z,15.85
2022-10-11T06:10:13.655Z,10.90
2022-10-11T06:12:41.192Z,13.13
2022-10-11T06:15:09.573Z,13.93
2022-10-11T06:17:37.875Z,12.07
2022-10-11T06:20:05.490Z,19.13
2022-10-11T06:22:33.053Z,13.23
2022-10-11T06:25:01.356Z,14.50
2022-10-11T06:27:28.890Z,14.77
2022-10-11T06:29:58.129Z,12.40
2022-10-11T06:32:25.655Z,10.33
2022-10-11T06:34:53.946Z,7.53
2022-10-11T06:37:21.533Z,11.50
2022-10-11T06:39:49.055Z,11.30
2022-10-11T06:42:17.370Z,12.53
2022-10-11T06:44:44.942Z,8.20
2022-10-11T06:47:12.477Z,13.47
2022-10-11T06:49:40.012Z,12.27
2022-10-11T06:52:07.576Z,11.57
2022-10-11T06:54:35.110Z,7.10
2022-10-11T06:57:02.646Z,13.53
2022-10-11T06:59:30.229Z,15.00
2022-10-11T07:01:58.553Z,8.47
2022-10-11T07:04:26.086Z,15.87
2022-10-11T07:06:53.680Z,13.70
2022-10-11T07:09:21.225Z,12.53
2022-10-11T07:11:48.739Z,10.23
2022-10-11T07:14:17.083Z,9.27
2022-10-11T07:16:44.667Z,8.43
2022-10-11T07:19:12.182Z,12.40
2022-10-11T07:21:39.755Z,10.17
2022-10-11T07:24:07.309Z,9.57
2022-10-11T07:26:38.436Z,21.03
2022-10-11T07:29:02.457Z,13.20
2022-10-11T07:31:29.964Z,13.80
2022-10-11T07:33:57.488Z,14.47
2022-10-11T07:36:25.119Z,14.47
2022-10-11T07:38:52.647Z,12.18
2022-10-11T07:41:20.189Z,9.90
2022-10-11T07:43:48.533Z,10.33
2022-10-11T07:46:16.081Z,11.23
2022-10-11T07:48:43.666Z,14.40
2022-10-11T07:51:16.868Z,14.40
2022-10-11T07:53:45.190Z,12.00
2022-10-11T07:56:12.716Z,13.37
2022-10-11T07:58:40.299Z,14.98
2022-10-11T08:01:07.877Z,11.60
2022-10-11T08:03:36.146Z,11.70
2022-10-11T08:06:04.189Z,14.40
2022-10-11T08:08:31.313Z,11.10
2022-10-11T08:10:58.865Z,13.30
2022-10-11T08:13:26.430Z,12.37
2022-10-11T08:15:53.962Z,10.13
2022-10-11T08:18:21.494Z,12.93
2022-10-11T08:20:49.401Z,17.73
2022-10-11T08:23:16.908Z,15.73
2022-10-11T08:25:44.441Z,11.70
2022-10-11T08:28:12.830Z,14.80
2022-10-11T08:30:40.331Z,11.43
2022-10-11T08:33:08.718Z,15.90
2022-10-11T08:35:35.454Z,16.77
2022-10-11T08:38:02.977Z,14.00
2022-10-11T08:40:34.977Z,12.77
2022-10-11T08:43:03.830Z,13.87
2022-10-11T08:45:40.404Z,13.83
2022-10-11T08:48:17.086Z,9.77
2022-10-11T08:50:44.632Z,13.17
2022-10-11T08:53:14.981Z,12.23
2022-10-11T08:55:45.272Z,12.80
2022-10-11T08:58:12.828Z,15.10
2022-10-11T09:00:41.121Z,11.80
2022-10-11T09:03:35.820Z,12.00
2022-10-11T09:06:12.365Z,17.67
2022-10-11T09:08:48.830Z,23.40
2022-10-11T09:11:20.126Z,13.47
2022-10-11T09:13:50.368Z,8.40
2022-10-11T09:16:26.321Z,8.00
2022-10-11T09:19:17.929Z,15.02
2022-10-11T09:21:54.572Z,12.50
2022-10-11T09:24:37.024Z,14.47
2022-10-11T09:27:13.580Z,19.50
2022-10-11T09:29:43.792Z,12.57
2022-10-11T09:32:14.271Z,14.23
2022-10-11T09:34:42.602Z,14.40
2022-10-11T09:37:25.054Z,15.90
2022-10-11T09:39:56.360Z,14.57
2022-10-11T09:42:23.914Z,13.17
2022-10-11T09:44:51.468Z,11.05
2022-10-11T09:47:24.933Z,7.50
2022-10-11T09:49:52.455Z,12.83
2022-10-11T09:52:19.991Z,9.70
2022-10-11T09:54:47.574Z,13.50
2022-10-11T09:57:26.852Z,12.40
2022-10-11T10:00:12.251Z,9.97
2022-10-11T10:02:42.168Z,8.70
2022-10-11T10:05:09.697Z,7.60
2022-10-11T10:07:37.287Z,10.63
2022-10-11T10:10:23.471Z,7.13
2022-10-11T10:12:53.949Z,8.77
2022-10-11T10:15:21.485Z,8.60
2022-10-11T10:17:52.119Z,12.13
2022-10-11T10:20:25.093Z,10.13
2022-10-11T10:22:52.636Z,8.80
2022-10-11T10:25:25.806Z,10.27
2022-10-11T10:27:59.037Z,9.73
2022-10-11T10:30:26.572Z,8.33
2022-10-11T10:32:57.024Z,11.68
2022-10-11T10:35:30.365Z,9.23
2022-10-11T10:38:07.175Z,11.43
2022-10-11T10:40:43.531Z,8.10
2022-10-11T10:43:14.030Z,7.03
2022-10-11T10:45:47.817Z,8.83
2022-10-11T10:48:18.543Z,10.93
2022-10-11T10:51:07.140Z,8.10
2022-10-11T10:53:46.330Z,15.00
2022-10-11T10:56:16.564Z,9.03
2022-10-11T10:58:56.800Z,5.03
2022-10-11T11:01:24.374Z,9.20
2022-10-11T11:04:13.077Z,6.87
2022-10-11T11:06:55.913Z,7.23
2022-10-11T11:09:41.506Z,8.43
2022-10-11T11:12:27.384Z,8.43
2022-10-11T11:15:03.360Z,6.10
2022-10-11T11:18:04.883Z,7.83
2022-10-11T11:21:02.545Z,7.80
2022-10-11T11:24:04.021Z,4.60
2022-10-11T11:26:44.277Z,7.00
2022-10-11T11:29:27.723Z,9.87
2022-10-11T11:31:55.297Z,8.80
2022-10-11T11:34:22.820Z,6.20
2022-10-11T11:37:02.397Z,6.87
2022-10-11T11:39:33.535Z,4.90
2022-10-11T11:42:12.895Z,8.47
2022-10-11T11:44:41.198Z,6.70
2022-10-11T11:47:11.184Z,13.90
2022-10-11T11:49:39.572Z,4.10
2022-10-11T11:52:07.102Z,5.00
2022-10-11T11:54:52.639Z,8.33
2022-10-11T11:57:25.830Z,8.97
2022-10-11T11:59:53.365Z,6.97
2022-10-11T12:02:42.076Z,8.70
2022-10-11T12:05:09.584Z,9.77
2022-10-11T12:07:52.419Z,7.37
2022-10-11T12:10:38.150Z,7.90
2022-10-11T12:13:21.196Z,9.23
2022-10-11T12:15:57.668Z,11.33
2022-10-11T12:18:25.194Z,8.50
2022-10-11T12:21:05.333Z,3.10
2022-10-11T12:23:32.560Z,5.97
2022-10-11T12:26:27.765Z,7.05
2022-10-11T12:29:20.786Z,6.23
2022-10-11T12:31:47.183Z,5.47
2022-10-11T12:34:20.401Z,7.20
2022-10-11T12:36:47.913Z,4.80
2022-10-11T12:39:21.504Z,4.63
2022-10-11T12:41:49.037Z,5.67
2022-10-11T12:44:19.370Z,6.67
2022-10-11T12:46:52.634Z,4.63
2022-10-11T12:49:32.841Z,5.80
2022-10-11T12:52:00.406Z,6.40
2022-10-11T12:54:46.451Z,6.40
2022-10-11T12:57:20.622Z,13.20
2022-10-11T12:59:48.166Z,4.03
2022-10-11T13:02:30.707Z,5.47
2022-10-11T13:05:22.807Z,5.10
2022-10-11T13:07:50.401Z,4.37
2022-10-11T13:10:17.928Z,7.60
2022-10-11T13:12:45.451Z,4.30
2022-10-11T13:15:13.039Z,3.33
2022-10-11T13:17:40.561Z,13.87
2022-10-11T13:20:17.901Z,11.13
2022-10-11T13:22:45.427Z,6.27
2022-10-11T13:25:12.961Z,6.53
2022-10-11T13:27:41.297Z,5.90
2022-10-11T13:30:08.888Z,6.57
2022-10-11T13:32:36.365Z,6.00
2022-10-11T13:35:04.725Z,7.63
2022-10-11T13:37:32.259Z,5.33
2022-10-11T13:39:59.784Z,4.43
2022-10-11T13:42:30.204Z,4.23
2022-10-11T13:44:57.743Z,5.90
2022-10-11T13:47:28.916Z,8.10
2022-10-11T13:50:11.222Z,4.37
2022-10-11T13:52:38.736Z,6.27
2022-10-11T13:55:07.030Z,3.10
2022-10-11T13:57:38.405Z,2.73
2022-10-11T14:00:08.905Z,3.17
2022-10-11T14:02:37.215Z,6.67
2022-10-11T14:05:04.798Z,2.30
2022-10-11T14:07:32.407Z,6.63
2022-10-11T14:09:59.858Z,5.45
2022-10-11T14:12:43.186Z,6.23
2022-10-11T14:15:28.957Z,4.93
2022-10-11T14:17:56.520Z,4.30
2022-10-11T14:20:26.402Z,6.83
2022-10-11T14:22:52.338Z,5.40
2022-10-11T14:25:19.923Z,7.80
2022-10-11T14:27:48.332Z,4.30
2022-10-11T14:30:31.996Z,3.27
2022-10-11T14:32:44.177Z,7.33
2022-10-11T14:35:23.569Z,5.57
2022-10-11T14:37:52.187Z,4.20
2022-10-11T14:40:19.734Z,4.50
2022-10-11T14:42:47.279Z,4.33
2022-10-11T14:45:15.640Z,5.40
2022-10-11T14:47:43.410Z,4.00
2022-10-11T14:50:13.824Z,5.37
2022-10-11T14:52:41.812Z,7.60
2022-10-11T14:55:10.134Z,4.43
2022-10-11T14:57:37.659Z,6.53
2022-10-11T15:00:08.462Z,7.47
2022-10-11T15:02:36.000Z,3.83
2022-10-11T15:05:03.541Z,4.57
2022-10-11T15:07:31.105Z,4.70
2022-10-11T15:09:58.749Z,5.90
2022-10-11T15:12:26.274Z,6.07
2022-10-11T15:14:54.606Z,3.63
2022-10-11T15:17:22.141Z,8.63
2022-10-11T15:19:49.666Z,5.40
2022-10-11T15:22:17.997Z,3.27
2022-10-11T15:24:50.690Z,3.47
2022-10-11T15:27:13.087Z,4.97
2022-10-11T15:29:40.618Z,3.33
2022-10-11T15:32:08.921Z,7.47
2022-10-11T15:34:36.496Z,6.53
2022-10-11T15:37:04.807Z,7.67
2022-10-11T15:39:32.342Z,5.67
2022-10-11T15:41:59.886Z,3.27
2022-10-11T15:44:27.505Z,4.30
2022-10-11T15:46:55.017Z,5.30
2022-10-11T15:49:22.551Z,2.83
2022-10-11T15:51:50.144Z,5.03
2022-10-11T15:54:17.698Z,4.77
2022-10-11T15:56:45.280Z,4.70
2022-10-11T15:59:12.856Z,3.83
2022-10-11T16:01:40.410Z,6.40
2022-10-11T16:04:07.927Z,5.40
2022-10-11T16:06:35.500Z,3.87
2022-10-11T16:09:03.045Z,5.97
2022-10-11T16:11:30.581Z,4.83
2022-10-11T16:13:58.921Z,4.87
2022-10-11T16:16:26.450Z,5.50
2022-10-11T16:18:53.992Z,4.60
2022-10-11T16:21:21.576Z,6.10
2022-10-11T16:23:49.102Z,4.17
2022-10-11T16:26:16.680Z,6.50
2022-10-11T16:28:44.494Z,5.50
2022-10-11T16:31:12.506Z,5.27
2022-10-11T16:33:40.046Z,7.50
2022-10-11T16:36:08.026Z,8.60
2022-10-11T16:38:35.154Z,6.73
2022-10-11T16:41:03.460Z,7.40
2022-10-11T16:43:31.041Z,14.63
2022-10-11T16:45:58.585Z,15.20
2022-10-11T16:48:26.120Z,12.73
2022-10-11T16:50:53.694Z,5.00
2022-10-11T16:53:21.228Z,4.43
2022-10-11T16:55:49.570Z,4.77
2022-10-11T16:58:17.164Z,6.73
2022-10-11T17:00:45.496Z,8.73
2022-10-11T17:03:13.021Z,4.83
2022-10-11T17:05:41.551Z,3.87
2022-10-11T17:08:09.162Z,5.37
2022-10-11T17:10:40.026Z,6.30
2022-10-11T17:13:07.857Z,6.10
2022-10-11T17:15:35.391Z,4.50
2022-10-11T17:18:03.693Z,9.07
2022-10-11T17:20:31.269Z,6.70
2022-10-11T17:22:58.813Z,7.67
2022-10-11T17:25:26.347Z,6.63
2022-10-11T17:27:57.387Z,7.70
2022-10-11T17:30:25.699Z,7.63
2022-10-11T17:32:53.235Z,9.37
2022-10-11T17:35:21.577Z,12.50
2022-10-11T17:37:49.112Z,15.03
2022-10-11T17:40:16.666Z,11.13
2022-10-11T17:42:44.231Z,13.03
2022-10-11T17:45:11.776Z,14.40
2022-10-11T17:47:39.301Z,14.83
2022-10-11T17:50:07.722Z,15.80
2022-10-11T17:52:35.275Z,10.67
2022-10-11T17:55:02.800Z,18.07
2022-10-11T17:57:31.162Z,15.60
2022-10-11T17:59:59.466Z,12.63
2022-10-11T18:02:27.019Z,12.73
2022-10-11T18:04:55.357Z,14.10
2022-10-11T18:07:22.896Z,10.30
2022-10-11T18:09:50.536Z,14.85
2022-10-11T18:12:18.123Z,15.53
2022-10-11T18:14:45.671Z,12.63
2022-10-11T18:17:13.205Z,15.80
2022-10-11T18:19:40.787Z,12.00
2022-10-11T18:22:08.350Z,9.83
2022-10-11T18:24:35.876Z,11.87
2022-10-11T18:27:04.219Z,9.10
2022-10-11T18:29:31.753Z,12.63
2022-10-11T18:31:59.307Z,8.20
2022-10-11T18:34:26.891Z,9.47
2022-10-11T18:36:54.436Z,13.30
2022-10-11T18:39:21.974Z,10.43
2022-10-11T18:41:49.545Z,20.80
2022-10-11T18:44:17.100Z,14.03
2022-10-11T18:46:44.613Z,9.70
2022-10-11T18:49:12.958Z,15.50
2022-10-11T18:51:40.506Z,16.57
2022-10-11T18:54:08.026Z,15.50
2022-10-11T18:56:35.603Z,13.03
2022-10-11T18:59:03.134Z,12.70
2022-10-11T19:01:33.643Z,12.57
2022-10-11T19:04:01.126Z,14.53
2022-10-11T19:06:28.644Z,11.97
2022-10-11T19:08:56.174Z,10.00
2022-10-11T19:11:23.742Z,13.52
2022-10-11T19:14:00.128Z,10.43
2022-10-11T19:16:27.663Z,11.10
2022-10-11T19:18:55.248Z,11.10
2022-10-11T19:21:22.787Z,9.40
2022-10-11T19:23:50.307Z,7.63
2022-10-11T19:26:23.464Z,15.50
2022-10-11T19:28:54.595Z,11.80
2022-10-11T19:31:22.029Z,10.57
2022-10-11T19:33:49.619Z,12.63
2022-10-11T19:36:17.128Z,10.30
2022-10-11T19:38:44.705Z,10.37
2022-10-11T19:41:12.239Z,13.30
2022-10-11T19:43:39.761Z,9.03
2022-10-11T19:46:08.075Z,12.07
2022-10-11T19:48:38.662Z,12.53
2022-10-11T19:51:06.206Z,12.00
2022-10-11T19:53:33.740Z,12.40
2022-10-11T19:56:04.318Z,8.00
2022-10-11T19:58:32.610Z,7.67
2022-10-11T20:01:06.686Z,13.13
2022-10-11T20:03:34.210Z,10.00
2022-10-11T20:06:01.743Z,15.07
2022-10-11T20:08:29.268Z,10.13
2022-10-11T20:10:56.852Z,9.27
2022-10-11T20:13:25.135Z,8.47
2022-10-11T20:15:55.253Z,8.90
2022-10-11T20:18:23.593Z,8.23
2022-10-11T20:20:53.874Z,7.23
2022-10-11T20:23:26.491Z,7.33
2022-10-11T20:26:01.418Z,8.87
2022-10-11T20:28:29.052Z,10.17
2022-10-11T20:30:56.499Z,8.37
2022-10-11T20:33:24.081Z,9.67
2022-10-11T20:35:57.523Z,9.10
2022-10-11T20:38:25.817Z,7.90
2022-10-11T20:40:53.406Z,10.37
2022-10-11T20:43:20.935Z,8.03
2022-10-11T20:46:03.377Z,7.30
2022-10-11T20:48:30.932Z,10.07
2022-10-11T20:50:58.456Z,9.13
2022-10-11T20:53:26.799Z,10.70
2022-10-11T20:55:54.334Z,12.80
2022-10-11T20:58:21.868Z,15.67
2022-10-11T21:00:49.472Z,18.80
2022-10-11T21:03:16.977Z,13.93
2022-10-11T21:05:44.521Z,16.50
2022-10-11T21:08:12.884Z,18.57
2022-10-11T21:10:40.408Z,21.27
2022-10-11T21:13:07.943Z,19.47
2022-10-11T21:15:35.517Z,17.63
2022-10-11T21:18:03.054Z,17.12
2022-10-11T21:20:30.578Z,17.67
2022-10-11T21:22:58.174Z,14.27
2022-10-11T21:25:25.717Z,14.10
2022-10-11T21:27:53.999Z,13.17
2022-10-11T21:30:21.592Z,12.87
2022-10-11T21:32:49.117Z,12.33
2022-10-11T21:35:16.653Z,12.67
2022-10-11T21:37:45.024Z,14.87
2022-10-11T21:40:12.539Z,14.83
2022-10-11T21:42:40.093Z,15.80
2022-10-11T21:45:07.727Z,14.07
2022-10-11T21:47:38.990Z,12.70
2022-10-11T21:50:03.559Z,10.93
2022-10-11T21:52:31.990Z,13.80
2022-10-11T21:54:59.421Z,8.60
2022-10-11T21:57:26.956Z,10.38
2022-10-11T21:59:54.522Z,14.60
2022-10-11T22:02:22.064Z,10.57
2022-10-11T22:04:49.609Z,9.77
2022-10-11T22:07:17.195Z,11.00
2022-10-11T22:09:45.506Z,8.87
2022-10-11T22:12:13.052Z,11.20
2022-10-11T22:14:40.646Z,11.63
2022-10-11T22:17:08.189Z,13.40
2022-10-11T22:19:35.734Z,10.90
2022-10-11T22:22:03.317Z,9.50
2022-10-11T22:24:30.853Z,10.77
2022-10-11T22:26:58.387Z,11.15
2022-10-11T22:29:27.680Z,7.90
2022-10-11T22:31:54.244Z,8.80
2022-10-11T22:34:22.056Z,7.97
2022-10-11T22:36:49.441Z,8.27
2022-10-11T22:39:16.992Z,9.82
2022-10-11T22:41:45.299Z,9.77
2022-10-11T22:44:13.139Z,7.80
2022-10-11T22:46:41.441Z,9.07
2022-10-11T22:49:08.976Z,6.30
2022-10-11T22:51:38.196Z,13.97
2022-10-11T22:54:05.799Z,10.13
2022-10-11T22:56:33.322Z,9.93
2022-10-11T22:59:00.918Z,10.43
2022-10-11T23:01:28.412Z,13.17
2022-10-11T23:03:55.962Z,8.60
2022-10-11T23:06:23.515Z,13.63
2022-10-11T23:08:51.805Z,14.47
2022-10-11T23:11:20.108Z,13.33
2022-10-11T23:13:47.684Z,12.63
2022-10-11T23:16:15.226Z,12.60
2022-10-11T23:18:42.753Z,11.37
2022-10-11T23:21:11.064Z,9.77
2022-10-11T23:23:38.589Z,10.03
2022-10-11T23:26:09.299Z,10.37
2022-10-11T23:28:36.925Z,7.83
2022-10-11T23:31:10.468Z,11.70
2022-10-11T23:33:38.772Z,9.13
2022-10-11T23:36:06.326Z,13.87
2022-10-11T23:38:33.850Z,10.13
2022-10-11T23:41:01.384Z,8.07
2022-10-11T23:43:28.969Z,12.70
2022-10-11T23:45:56.513Z,15.50
2022-10-11T23:48:24.060Z,12.50
2022-10-11T23:50:51.622Z,11.67
2022-10-11T23:53:19.149Z,11.53
2022-10-11T23:55:46.672Z,8.43
2022-10-11T23:58:14.570Z,14.17
